Time;durP1;ratioP1;P1;durP2;ratioP2;P2;SDS_P1;SDS_P2;PMS_P1;PMS_P2;Temp;Humidity;BMP_temperature;BMP_pressure;BME280_temperature;BME280_humidity;BME280_pressure;Samples;Min_cycle;Max_cycle;Signal;HPM_P1;HPM_P2
2020/12/02 00:00:17;;;;;;;6.25;5.22;;;8.90;99.90;;;;;;2121441;27;20029;-80
2020/12/02 00:01:21;;;;;;;8.05;5.10;;;8.90;99.90;;;;;;2121776;27;20014;-77
2020/12/02 00:02:29;;;;;;;5.80;5.18;;;8.90;99.90;;;;;;2121178;27;20051;-77
2020/12/02 00:03:36;;;;;;;6.07;5.47;;;8.90;99.90;;;;;;2121833;27;20027;-79
2020/12/02 00:04:38;;;;;;;6.38;5.60;;;9.00;99.90;;;;;;2121562;28;20039;-77
2020/12/02 00:05:43;;;;;;;7.55;6.07;;;9.00;99.90;;;;;;2121793;27;20015;-79
2020/12/02 00:06:43;;;;;;;6.00;5.40;;;9.00;99.90;;;;;;2121836;28;20015;-79
2020/12/02 00:07:47;;;;;;;7.13;5.50;;;9.00;99.90;;;;;;2121602;28;20470;-78
2020/12/02 00:08:53;;;;;;;6.43;5.82;;;9.00;99.90;;;;;;2112501;28;20089;-79
2020/12/02 00:09:54;;;;;;;6.15;5.55;;;8.90;99.90;;;;;;2113495;28;20052;-79
2020/12/02 00:10:55;;;;;;;5.97;5.20;;;8.90;99.90;;;;;;2121732;27;20378;-77
2020/12/02 00:11:55;;;;;;;6.57;5.90;;;9.00;99.90;;;;;;2112300;28;20483;-78
2020/12/02 00:12:56;;;;;;;7.80;5.65;;;8.90;99.90;;;;;;2103827;28;20032;-77
2020/12/02 00:14:02;;;;;;;7.10;6.40;;;9.00;99.90;;;;;;2112230;28;20032;-77
2020/12/02 00:15:06;;;;;;;7.13;6.43;;;8.90;99.90;;;;;;2121623;28;20015;-79
2020/12/02 00:16:08;;;;;;;8.15;6.50;;;9.00;99.90;;;;;;2121309;28;20539;-77
2020/12/02 00:17:15;;;;;;;9.38;7.88;;;8.90;99.90;;;;;;2121452;28;20027;-78
2020/12/02 00:18:17;;;;;;;10.70;8.50;;;8.90;99.90;;;;;;2112325;28;20026;-76
2020/12/02 00:19:18;;;;;;;10.20;8.75;;;8.90;99.90;;;;;;2112778;28;20028;-76
2020/12/02 00:20:18;;;;;;;11.13;7.88;;;8.90;99.90;;;;;;2121057;28;20023;-79
2020/12/02 00:21:20;;;;;;;12.80;8.68;;;8.90;99.90;;;;;;2121488;28;20033;-77
2020/12/02 00:22:23;;;;;;;10.00;7.97;;;8.90;99.90;;;;;;2121440;28;20019;-78
2020/12/02 00:23:23;;;;;;;14.38;8.90;;;8.90;99.90;;;;;;2121237;28;20459;-78
2020/12/02 00:24:24;;;;;;;10.43;8.10;;;8.90;99.90;;;;;;2121558;28;20071;-81
2020/12/02 00:25:24;;;;;;;13.10;7.35;;;8.90;99.90;;;;;;2121684;28;20019;-80
2020/12/02 00:26:27;;;;;;;11.98;9.40;;;8.90;99.90;;;;;;2111665;28;20467;-77
2020/12/02 00:27:29;;;;;;;13.43;9.55;;;8.90;99.90;;;;;;2112160;28;20444;-79
2020/12/02 00:28:30;;;;;;;12.05;9.43;;;8.90;99.90;;;;;;2121837;28;20030;-79
2020/12/02 00:29:31;;;;;;;12.10;9.32;;;8.90;99.90;;;;;;2121182;28;20067;-76
2020/12/02 00:30:35;;;;;;;12.52;8.85;;;8.90;99.90;;;;;;2121499;28;20035;-78
2020/12/02 00:31:36;;;;;;;12.85;8.75;;;8.80;99.90;;;;;;2120822;28;20019;-78
2020/12/02 00:32:39;;;;;;;13.35;10.05;;;8.90;99.90;;;;;;2121412;28;20015;-82
2020/12/02 00:33:39;;;;;;;11.85;8.35;;;8.90;99.90;;;;;;2121264;28;20375;-80
2020/12/02 00:34:40;;;;;;;14.15;9.88;;;8.90;99.90;;;;;;2121732;28;20019;-79
2020/12/02 00:35:41;;;;;;;12.82;9.45;;;8.90;99.90;;;;;;2112308;28;20028;-77
2020/12/02 00:36:42;;;;;;;16.92;9.65;;;8.90;99.90;;;;;;2112666;28;20023;-78
2020/12/02 00:37:43;;;;;;;15.65;10.13;;;8.90;99.90;;;;;;2121547;28;20095;-77
2020/12/02 00:38:44;;;;;;;12.43;9.30;;;8.90;99.90;;;;;;2121350;28;20020;-76
2020/12/02 00:39:44;;;;;;;13.18;9.70;;;8.90;99.90;;;;;;2112097;28;20044;-79
2020/12/02 00:40:47;;;;;;;12.77;10.00;;;8.90;99.90;;;;;;2112672;28;20024;-78
2020/12/02 00:41:48;;;;;;;13.45;10.27;;;8.90;99.90;;;;;;2121482;28;20015;-79
2020/12/02 00:42:49;;;;;;;13.75;10.70;;;8.90;99.90;;;;;;2121241;28;20038;-79
2020/12/02 00:43:50;;;;;;;14.15;10.18;;;8.90;99.90;;;;;;2112453;28;20024;-80
2020/12/02 00:44:51;;;;;;;12.38;9.45;;;8.90;99.90;;;;;;2112620;28;20063;-78
2020/12/02 00:46:03;;;;;;;13.30;10.70;;;8.90;99.90;;;;;;2121281;28;20019;-79
2020/12/02 00:47:11;;;;;;;14.00;9.70;;;8.80;99.90;;;;;;2112256;28;20444;-76
2020/12/02 00:48:15;;;;;;;12.73;10.02;;;8.80;99.90;;;;;;2113509;28;20016;-79
2020/12/02 00:49:16;;;;;;;14.48;9.85;;;8.80;99.90;;;;;;2121759;28;20015;-77
2020/12/02 00:50:19;;;;;;;16.38;10.52;;;8.80;99.90;;;;;;2121377;28;20026;-78
2020/12/02 00:51:20;;;;;;;13.50;10.25;;;8.80;99.90;;;;;;2120848;28;20034;-78
2020/12/02 00:52:21;;;;;;;14.55;11.13;;;8.80;99.90;;;;;;2121403;28;20089;-76
2020/12/02 00:53:29;;;;;;;18.20;10.82;;;8.80;99.90;;;;;;2121598;28;20376;-79
2020/12/02 00:54:30;;;;;;;14.45;10.60;;;8.80;99.90;;;;;;2121361;28;20027;-79
2020/12/02 00:55:30;;;;;;;15.40;11.52;;;8.80;99.90;;;;;;2121639;28;20424;-77
2020/12/02 00:56:32;;;;;;;14.55;10.10;;;8.80;99.90;;;;;;2121256;28;20378;-77
2020/12/02 00:57:35;;;;;;;16.23;11.18;;;8.80;99.90;;;;;;2121371;28;20080;-78
2020/12/02 00:59:04;;;;;;;15.52;11.65;;;8.80;99.90;;;;;;2121411;28;20031;-77
2020/12/02 01:00:07;;;;;;;14.00;10.80;;;8.80;99.90;;;;;;2121585;27;20035;-79
2020/12/02 01:01:10;;;;;;;19.10;11.98;;;8.80;99.90;;;;;;2123383;27;20043;-79
2020/12/02 01:02:46;;;;;;;17.75;10.65;;;8.70;99.90;;;;;;2122603;27;20027;-76
2020/12/02 01:03:48;;;;;;;16.90;12.45;;;8.70;99.90;;;;;;2113788;28;20028;-78
2020/12/02 01:04:49;;;;;;;14.85;11.32;;;8.70;99.90;;;;;;2114023;28;20035;-76
2020/12/02 01:05:50;;;;;;;17.45;11.70;;;8.70;99.90;;;;;;2123258;27;20516;-78
2020/12/02 01:06:53;;;;;;;15.20;11.45;;;8.70;99.90;;;;;;2122925;27;20051;-79
2020/12/02 01:07:54;;;;;;;17.08;12.07;;;8.60;99.90;;;;;;2123297;27;20023;-79
2020/12/02 01:08:55;;;;;;;17.67;11.88;;;8.60;99.90;;;;;;2123170;27;20462;-79
2020/12/02 01:09:56;;;;;;;19.00;12.55;;;8.60;99.90;;;;;;2123021;27;20026;-79
2020/12/02 01:11:11;;;;;;;17.33;11.90;;;8.60;99.90;;;;;;2122830;27;20026;-79
2020/12/02 01:12:16;;;;;;;20.23;12.82;;;8.60;99.90;;;;;;2122732;27;20038;-78
2020/12/02 01:13:16;;;;;;;16.02;11.57;;;8.60;99.90;;;;;;2105556;28;20032;-78
2020/12/02 01:14:18;;;;;;;21.77;12.98;;;8.60;99.90;;;;;;2105419;28;20534;-77
2020/12/02 01:15:21;;;;;;;19.98;13.32;;;8.60;99.90;;;;;;2122825;27;20023;-78
2020/12/02 01:16:30;;;;;;;17.23;12.73;;;8.60;99.90;;;;;;2122912;27;20056;-80
2020/12/02 01:17:31;;;;;;;19.15;13.07;;;8.60;99.90;;;;;;2122942;27;20080;-76
2020/12/02 01:18:32;;;;;;;22.52;13.07;;;8.60;99.90;;;;;;2123103;27;20047;-80
2020/12/02 01:19:35;;;;;;;18.45;13.50;;;8.60;99.90;;;;;;2122739;27;20023;-80
2020/12/02 01:20:35;;;;;;;19.55;13.40;;;8.60;99.90;;;;;;2122826;27;20033;-76
2020/12/02 01:21:38;;;;;;;18.75;13.75;;;8.60;99.90;;;;;;2122264;27;20027;-79
2020/12/02 01:22:41;;;;;;;18.98;12.30;;;8.60;99.90;;;;;;2113625;28;20034;-78
2020/12/02 01:23:50;;;;;;;18.48;12.63;;;8.60;99.90;;;;;;2113976;27;20295;-80
2020/12/02 01:25:17;;;;;;;20.23;13.43;;;8.70;99.90;;;;;;2122912;27;20019;-78
2020/12/02 01:26:19;;;;;;;20.27;13.43;;;8.60;99.90;;;;;;2122896;27;20034;-79
2020/12/02 01:27:45;;;;;;;21.10;13.77;;;8.60;99.90;;;;;;2113300;28;20052;-79
2020/12/02 01:28:49;;;;;;;22.35;14.02;;;8.60;99.90;;;;;;2117255;27;20055;-79
2020/12/02 01:29:52;;;;;;;18.85;13.73;;;8.60;99.90;;;;;;2122806;27;20015;-78
2020/12/02 01:30:55;;;;;;;18.92;13.50;;;8.60;99.90;;;;;;2122780;27;20467;-79
2020/12/02 01:31:57;;;;;;;25.45;13.55;;;8.60;99.90;;;;;;2122224;27;20367;-77
2020/12/02 01:32:58;;;;;;;18.48;13.50;;;8.60;99.90;;;;;;2122755;27;20031;-79
2020/12/02 01:33:58;;;;;;;21.80;14.52;;;8.60;99.90;;;;;;2122621;27;20102;-77
2020/12/02 01:34:59;;;;;;;17.98;13.55;;;8.60;99.90;;;;;;2122757;27;20027;-79
2020/12/02 01:35:59;;;;;;;20.25;13.27;;;8.60;99.90;;;;;;2123001;27;20038;-77
2020/12/02 01:37:06;;;;;;;17.50;13.35;;;8.70;99.90;;;;;;2122970;27;20053;-78
2020/12/02 01:38:06;;;;;;;22.42;14.63;;;8.60;99.90;;;;;;2113606;28;20365;-78
2020/12/02 01:39:08;;;;;;;18.05;12.45;;;8.60;99.90;;;;;;2113669;28;20277;-79
2020/12/02 01:40:22;;;;;;;21.42;13.88;;;8.60;99.90;;;;;;2122421;27;20116;-81
2020/12/02 01:41:23;;;;;;;19.25;13.85;;;8.60;99.90;;;;;;2122337;27;20121;-80
2020/12/02 01:42:23;;;;;;;24.38;14.68;;;8.60;99.90;;;;;;2122715;27;20491;-79
2020/12/02 01:43:24;;;;;;;18.23;13.43;;;8.60;99.90;;;;;;2123010;27;20027;-78
2020/12/02 01:44:25;;;;;;;18.27;13.60;;;8.60;99.90;;;;;;2122831;27;20044;-80
2020/12/02 01:45:32;;;;;;;19.20;12.90;;;8.60;99.90;;;;;;2113495;28;20028;-77
2020/12/02 01:46:42;;;;;;;21.25;14.38;;;8.60;99.90;;;;;;2113350;28;20027;-77
2020/12/02 01:48:22;;;;;;;21.35;14.35;;;8.60;99.90;;;;;;2114926;27;20051;-78
2020/12/02 01:49:42;;;;;;;18.50;12.38;;;8.60;99.90;;;;;;2088292;28;20041;-80
2020/12/02 01:50:47;;;;;;;19.08;13.93;;;8.50;99.90;;;;;;2122605;27;20106;-80
2020/12/02 01:52:19;;;;;;;19.45;13.98;;;8.50;99.90;;;;;;2122309;27;20026;-78
2020/12/02 01:53:20;;;;;;;21.02;13.23;;;8.50;99.90;;;;;;2088223;28;20432;-76
2020/12/02 01:54:47;;;;;;;17.20;12.85;;;8.50;99.90;;;;;;2122521;27;20100;-77
2020/12/02 01:56:04;;;;;;;30.02;14.35;;;8.50;99.90;;;;;;2119275;27;20047;-80
2020/12/02 01:57:04;;;;;;;19.85;12.82;;;8.50;99.90;;;;;;2122341;27;20025;-77
2020/12/02 01:58:26;;;;;;;17.77;13.25;;;8.50;99.90;;;;;;2122674;27;20046;-78
2020/12/02 01:59:47;;;;;;;18.92;13.50;;;8.60;99.90;;;;;;2122832;27;20027;-79
2020/12/02 02:00:56;;;;;;;22.88;13.85;;;8.50;99.90;;;;;;2122316;27;20023;-77
2020/12/02 02:02:13;;;;;;;19.17;13.95;;;8.50;99.90;;;;;;2122268;27;20375;-77
2020/12/02 02:03:18;;;;;;;18.67;13.32;;;8.60;99.90;;;;;;2122571;27;20028;-79
2020/12/02 02:04:26;;;;;;;23.50;15.07;;;8.50;99.90;;;;;;2113541;28;20015;-78
2020/12/02 02:05:35;;;;;;;22.13;13.98;;;8.50;99.90;;;;;;2113189;28;20034;-80
2020/12/02 02:06:50;;;;;;;21.40;15.15;;;8.60;99.90;;;;;;2113279;28;20054;-76
2020/12/02 02:07:52;;;;;;;20.02;13.82;;;8.60;99.90;;;;;;2115470;27;20031;-81
2020/12/02 02:08:53;;;;;;;23.48;14.57;;;8.60;99.90;;;;;;2122579;27;20047;-78
2020/12/02 02:09:57;;;;;;;20.45;14.25;;;8.60;99.90;;;;;;2122418;27;20023;-77
2020/12/02 02:11:01;;;;;;;19.33;13.90;;;8.60;99.90;;;;;;2122113;27;20498;-78
2020/12/02 02:12:43;;;;;;;20.67;14.32;;;8.60;99.90;;;;;;2121297;27;20027;-77
2020/12/02 02:13:51;;;;;;;20.90;13.77;;;8.60;99.90;;;;;;2122345;27;20407;-79
2020/12/02 02:15:24;;;;;;;22.88;15.65;;;8.60;99.90;;;;;;2122584;27;20054;-80
2020/12/02 02:16:34;;;;;;;21.38;15.50;;;8.60;99.90;;;;;;2113517;28;20032;-78
2020/12/02 02:17:34;;;;;;;19.88;13.60;;;8.60;99.90;;;;;;2114652;27;20027;-79
2020/12/02 02:18:35;;;;;;;29.60;14.80;;;8.50;99.90;;;;;;2122280;27;20096;-79
2020/12/02 02:19:35;;;;;;;22.02;15.27;;;8.60;99.90;;;;;;2122327;27;20024;-79
2020/12/02 02:20:44;;;;;;;23.73;16.15;;;8.60;99.90;;;;;;2122447;27;20437;-79
2020/12/02 02:21:48;;;;;;;26.48;15.73;;;8.60;99.90;;;;;;2121817;27;20015;-80
2020/12/02 02:22:50;;;;;;;20.13;15.00;;;8.50;99.90;;;;;;2122030;27;20035;-79
2020/12/02 02:23:51;;;;;;;24.20;15.25;;;8.60;99.90;;;;;;2113278;28;20511;-80
2020/12/02 02:24:53;;;;;;;25.08;16.80;;;8.60;99.90;;;;;;2113190;28;20023;-79
2020/12/02 02:26:13;;;;;;;21.70;14.45;;;8.50;99.90;;;;;;2122513;27;20071;-78
2020/12/02 02:27:16;;;;;;;29.05;15.95;;;8.60;99.90;;;;;;2122152;27;20099;-78
2020/12/02 02:28:16;;;;;;;26.77;14.80;;;8.50;99.90;;;;;;2122428;27;20023;-79
2020/12/02 02:29:24;;;;;;;33.40;16.08;;;8.60;99.90;;;;;;2122302;27;20019;-79
2020/12/02 02:30:24;;;;;;;24.92;15.43;;;8.60;99.90;;;;;;2112967;28;20228;-78
2020/12/02 02:31:28;;;;;;;27.45;15.05;;;8.50;99.90;;;;;;2113021;28;20514;-78
2020/12/02 02:32:29;;;;;;;25.70;14.23;;;8.50;99.90;;;;;;2113078;28;20073;-81
2020/12/02 02:33:29;;;;;;;29.17;14.70;;;8.60;99.90;;;;;;2113471;28;20027;-80
2020/12/02 02:34:32;;;;;;;22.88;14.15;;;8.50;99.90;;;;;;2122024;27;20084;-77
2020/12/02 02:35:32;;;;;;;27.48;14.35;;;8.50;99.90;;;;;;2122384;27;20102;-80
2020/12/02 02:36:33;;;;;;;23.65;15.18;;;8.50;99.90;;;;;;2122350;27;20462;-79
2020/12/02 02:37:33;;;;;;;23.88;14.70;;;8.50;99.90;;;;;;2122394;27;20027;-80
2020/12/02 02:38:34;;;;;;;32.13;16.48;;;8.50;99.90;;;;;;2122557;27;20021;-80
2020/12/02 02:39:34;;;;;;;26.10;15.70;;;8.50;99.90;;;;;;2122037;27;20043;-78
2020/12/02 02:40:35;;;;;;;22.92;14.23;;;8.50;99.90;;;;;;2122092;27;20034;-78
2020/12/02 02:41:35;;;;;;;29.20;15.30;;;8.50;99.90;;;;;;2122000;27;20478;-79
2020/12/02 02:42:48;;;;;;;31.52;15.13;;;8.60;99.90;;;;;;2112852;28;20031;-80
2020/12/02 02:43:49;;;;;;;20.23;13.95;;;8.60;99.90;;;;;;2114940;27;20655;-79
2020/12/02 02:44:51;;;;;;;29.52;15.00;;;8.50;99.90;;;;;;2122046;27;20031;-80
2020/12/02 02:45:51;;;;;;;22.98;15.27;;;8.60;99.90;;;;;;2122629;27;20027;-77
2020/12/02 02:46:53;;;;;;;25.75;16.05;;;8.50;99.90;;;;;;2121931;27;20027;-77
2020/12/02 02:47:56;;;;;;;22.83;14.95;;;8.60;99.90;;;;;;2122173;27;20015;-78
2020/12/02 02:48:57;;;;;;;42.20;17.80;;;8.50;99.90;;;;;;2122080;27;20030;-79
2020/12/02 02:49:57;;;;;;;40.03;19.15;;;8.50;99.90;;;;;;2122519;27;20027;-80
2020/12/02 02:50:58;;;;;;;37.28;16.83;;;8.50;99.90;;;;;;2122173;27;20027;-80
2020/12/02 02:51:59;;;;;;;25.92;16.33;;;8.50;99.90;;;;;;2112742;28;20024;-78
2020/12/02 02:53:00;;;;;;;31.85;17.50;;;8.50;99.90;;;;;;2112749;28;20035;-77
2020/12/02 02:54:01;;;;;;;39.08;17.38;;;8.50;99.90;;;;;;2112821;28;20058;-77
2020/12/02 02:55:03;;;;;;;39.90;18.90;;;8.50;99.90;;;;;;2113050;28;20058;-79
2020/12/02 02:56:03;;;;;;;42.45;18.13;;;8.50;99.90;;;;;;2113062;28;20023;-79
2020/12/02 02:57:04;;;;;;;38.58;20.50;;;8.50;99.90;;;;;;2112691;28;20235;-77
2020/12/02 02:58:05;;;;;;;54.65;19.70;;;8.50;99.90;;;;;;2122578;27;20030;-79
2020/12/02 02:59:08;;;;;;;34.72;18.88;;;8.50;99.90;;;;;;2121803;27;20019;-78
2020/12/02 03:00:13;;;;;;;37.20;20.02;;;8.50;99.90;;;;;;2120093;27;20076;-82
2020/12/02 03:01:14;;;;;;;30.77;17.48;;;8.50;99.90;;;;;;2122326;27;20023;-80
2020/12/02 03:02:15;;;;;;;49.60;21.15;;;8.50;99.90;;;;;;2122367;27;20483;-77
2020/12/02 03:03:15;;;;;;;41.25;20.67;;;8.50;99.90;;;;;;2122928;27;20073;-77
2020/12/02 03:04:16;;;;;;;36.80;22.27;;;8.50;99.90;;;;;;2122948;27;20034;-79
2020/12/02 03:05:17;;;;;;;44.75;20.42;;;8.50;99.90;;;;;;2122657;27;20011;-79
2020/12/02 03:06:17;;;;;;;35.60;20.58;;;8.40;99.90;;;;;;2122759;27;20026;-78
2020/12/02 03:07:18;;;;;;;32.65;20.83;;;8.40;99.90;;;;;;2122653;27;20254;-79
2020/12/02 03:08:19;;;;;;;44.22;21.45;;;8.40;99.90;;;;;;2123095;27;20072;-80
2020/12/02 03:09:19;;;;;;;42.65;22.23;;;8.40;99.90;;;;;;2122553;27;20050;-81
2020/12/02 03:10:23;;;;;;;42.85;20.90;;;8.40;99.90;;;;;;2122931;27;20091;-79
2020/12/02 03:11:24;;;;;;;41.03;21.85;;;8.40;99.90;;;;;;2121994;27;20020;-80
2020/12/02 03:12:25;;;;;;;38.47;21.67;;;8.40;99.90;;;;;;2113552;28;20047;-80
2020/12/02 03:13:37;;;;;;;54.50;22.88;;;8.40;99.90;;;;;;2105246;28;20075;-77
2020/12/02 03:14:41;;;;;;;38.78;20.77;;;8.40;99.90;;;;;;2115411;27;20519;-77
2020/12/02 03:15:43;;;;;;;48.33;21.20;;;8.40;99.90;;;;;;2122740;27;20016;-79
2020/12/02 03:16:48;;;;;;;47.67;23.60;;;8.40;99.90;;;;;;2122838;27;20027;-79
2020/12/02 03:17:50;;;;;;;34.65;19.90;;;8.30;99.90;;;;;;2122537;27;20049;-78
2020/12/02 03:18:54;;;;;;;41.10;21.67;;;8.40;99.90;;;;;;2122894;27;20084;-81
2020/12/02 03:20:02;;;;;;;40.22;21.80;;;8.40;99.90;;;;;;2122601;27;20427;-79
2020/12/02 03:21:07;;;;;;;38.00;20.77;;;8.40;99.90;;;;;;2113182;28;20553;-77
2020/12/02 03:22:11;;;;;;;36.83;20.98;;;8.40;99.90;;;;;;2113757;28;20436;-78
2020/12/02 03:23:14;;;;;;;37.90;20.38;;;8.40;99.90;;;;;;2122314;27;20023;-78
2020/12/02 03:24:15;;;;;;;38.58;20.48;;;8.40;99.90;;;;;;2121855;27;20018;-81
2020/12/02 03:25:22;;;;;;;38.67;19.48;;;8.40;99.90;;;;;;2113530;28;20024;-80
2020/12/02 03:26:22;;;;;;;38.88;18.25;;;8.40;99.90;;;;;;2114320;27;20353;-81
2020/12/02 03:27:25;;;;;;;33.50;18.67;;;8.40;99.90;;;;;;2121988;27;20053;-79
2020/12/02 03:28:28;;;;;;;30.73;17.20;;;8.40;99.90;;;;;;2122874;27;20027;-77
2020/12/02 03:29:29;;;;;;;30.63;19.58;;;8.40;99.90;;;;;;2122152;27;20318;-80
2020/12/02 03:30:29;;;;;;;37.33;17.55;;;8.40;99.90;;;;;;2113135;28;20387;-78
2020/12/02 03:31:30;;;;;;;28.10;17.05;;;8.40;99.90;;;;;;2104582;28;20030;-81
2020/12/02 03:32:31;;;;;;;28.75;16.88;;;8.40;99.90;;;;;;2113730;28;20016;-79
2020/12/02 03:33:31;;;;;;;26.05;16.70;;;8.40;99.90;;;;;;2122712;27;20031;-78
2020/12/02 03:34:32;;;;;;;35.10;18.25;;;8.40;99.90;;;;;;2113539;28;20114;-80
2020/12/02 03:35:32;;;;;;;24.85;16.25;;;8.40;99.90;;;;;;2113430;28;20039;-78
2020/12/02 03:36:33;;;;;;;27.75;17.63;;;8.40;99.90;;;;;;2113430;28;20054;-80
2020/12/02 03:37:34;;;;;;;34.67;17.95;;;8.40;99.90;;;;;;2113536;28;20094;-79
2020/12/02 03:38:34;;;;;;;30.92;17.23;;;8.40;99.90;;;;;;2122654;27;20042;-77
2020/12/02 03:39:35;;;;;;;31.58;17.55;;;8.40;99.90;;;;;;2113401;28;20027;-80
2020/12/02 03:40:35;;;;;;;32.40;18.33;;;8.40;99.90;;;;;;2113377;28;20523;-79
2020/12/02 03:41:37;;;;;;;37.35;18.23;;;8.40;99.90;;;;;;2122358;27;20359;-79
2020/12/02 03:42:38;;;;;;;37.88;17.73;;;8.40;99.90;;;;;;2122012;27;20253;-79
2020/12/02 03:43:39;;;;;;;32.80;16.80;;;8.40;99.90;;;;;;2122497;27;20517;-77
2020/12/02 03:44:39;;;;;;;26.33;17.05;;;8.40;99.90;;;;;;2113513;28;20029;-79
2020/12/02 03:45:42;;;;;;;26.92;16.85;;;8.40;99.90;;;;;;2113675;28;20499;-80
2020/12/02 03:46:43;;;;;;;26.40;15.95;;;8.30;99.90;;;;;;2113380;28;20028;-79
2020/12/02 03:47:44;;;;;;;28.98;17.25;;;8.40;99.90;;;;;;2105086;28;20024;-80
2020/12/02 03:48:44;;;;;;;31.27;16.58;;;8.30;99.90;;;;;;2113250;28;20495;-79
2020/12/02 03:49:45;;;;;;;26.58;16.15;;;8.30;99.90;;;;;;2122597;27;20379;-79
2020/12/02 03:50:47;;;;;;;32.35;18.40;;;8.30;99.90;;;;;;2122424;27;20375;-79
2020/12/02 03:51:47;;;;;;;34.28;19.05;;;8.30;99.90;;;;;;2122182;27;20383;-80
2020/12/02 03:52:48;;;;;;;28.25;17.55;;;8.30;99.90;;;;;;2122315;27;20061;-79
2020/12/02 03:53:48;;;;;;;27.42;17.05;;;8.30;99.90;;;;;;2122425;27;20083;-82
2020/12/02 03:54:49;;;;;;;28.40;17.42;;;8.30;99.90;;;;;;2122251;27;20038;-78
2020/12/02 03:55:50;;;;;;;25.00;15.63;;;8.30;99.90;;;;;;2113404;28;20027;-79
2020/12/02 03:56:50;;;;;;;32.80;16.83;;;8.30;99.90;;;;;;2113200;28;20039;-80
2020/12/02 03:57:51;;;;;;;28.35;17.27;;;8.30;99.90;;;;;;2113318;28;20411;-79
2020/12/02 03:58:51;;;;;;;26.17;15.98;;;8.30;99.90;;;;;;2113201;28;20027;-77
2020/12/02 03:59:52;;;;;;;37.83;18.38;;;8.40;99.90;;;;;;2122583;27;20428;-76
2020/12/02 04:00:52;;;;;;;41.28;17.80;;;8.30;99.90;;;;;;2122020;27;20023;-80
2020/12/02 04:01:53;;;;;;;35.55;19.33;;;8.40;99.90;;;;;;2121766;27;20033;-79
2020/12/02 04:02:54;;;;;;;40.25;19.98;;;8.30;99.90;;;;;;2121941;27;20352;-78
2020/12/02 04:03:54;;;;;;;35.75;19.55;;;8.30;99.90;;;;;;2121673;27;20475;-80
2020/12/02 04:04:55;;;;;;;35.40;19.25;;;8.30;99.90;;;;;;2121653;27;20027;-79
2020/12/02 04:05:56;;;;;;;35.22;17.50;;;8.30;99.90;;;;;;2121822;27;20052;-81
2020/12/02 04:06:56;;;;;;;29.90;18.55;;;8.40;99.90;;;;;;2121589;27;20019;-79
2020/12/02 04:07:57;;;;;;;32.58;18.13;;;8.40;99.90;;;;;;2112610;28;20020;-77
2020/12/02 04:08:57;;;;;;;34.50;20.15;;;8.40;99.90;;;;;;2112878;28;20110;-80
2020/12/02 04:09:59;;;;;;;51.30;21.63;;;8.40;99.90;;;;;;2112756;28;20179;-78
2020/12/02 04:11:00;;;;;;;38.35;21.20;;;8.40;99.90;;;;;;2103705;28;20051;-82
2020/12/02 04:12:01;;;;;;;42.55;21.42;;;8.30;99.90;;;;;;2112074;28;20487;-81
2020/12/02 04:13:01;;;;;;;69.03;23.25;;;8.30;99.90;;;;;;2121800;28;20054;-77
2020/12/02 04:14:02;;;;;;;53.53;22.23;;;8.30;99.90;;;;;;2121680;28;20038;-78
2020/12/02 04:15:05;;;;;;;44.40;19.20;;;8.30;99.90;;;;;;2121643;27;20023;-77
2020/12/02 04:16:05;;;;;;;37.13;21.50;;;8.30;99.90;;;;;;2112636;28;20024;-81
2020/12/02 04:17:06;;;;;;;58.47;22.20;;;8.30;99.90;;;;;;2112432;28;20069;-77
2020/12/02 04:18:06;;;;;;;61.22;22.13;;;8.30;99.90;;;;;;2112454;28;20027;-80
2020/12/02 04:19:07;;;;;;;35.47;20.65;;;8.30;99.90;;;;;;2112265;28;20510;-78
2020/12/02 04:20:08;;;;;;;32.75;20.70;;;8.30;99.90;;;;;;2121637;28;20027;-77
2020/12/02 04:21:09;;;;;;;45.00;19.98;;;8.30;99.90;;;;;;2121628;28;20015;-78
2020/12/02 04:22:09;;;;;;;39.60;23.00;;;8.30;99.90;;;;;;2112094;28;20026;-79
2020/12/02 04:23:10;;;;;;;42.35;23.15;;;8.30;99.90;;;;;;2112397;28;20047;-78
2020/12/02 04:24:10;;;;;;;53.80;23.30;;;8.30;99.90;;;;;;2121528;28;20027;-79
2020/12/02 04:25:12;;;;;;;64.22;24.05;;;8.40;99.90;;;;;;2121542;28;20055;-80
2020/12/02 04:26:12;;;;;;;61.58;25.42;;;8.40;99.90;;;;;;2112598;28;20398;-80
2020/12/02 04:27:13;;;;;;;45.58;23.60;;;8.30;99.90;;;;;;2112534;28;20031;-78
2020/12/02 04:28:14;;;;;;;51.80;23.48;;;8.30;99.90;;;;;;2121708;28;20102;-77
2020/12/02 04:29:15;;;;;;;53.88;22.85;;;8.30;99.90;;;;;;2112186;28;20042;-78
2020/12/02 04:30:15;;;;;;;54.10;24.52;;;8.30;99.90;;;;;;2112386;28;20602;-78
2020/12/02 04:31:16;;;;;;;50.88;24.25;;;8.30;99.90;;;;;;2121781;28;20588;-77
2020/12/02 04:32:17;;;;;;;53.85;24.10;;;8.30;99.90;;;;;;2121292;28;20024;-80
2020/12/02 04:33:17;;;;;;;44.85;23.88;;;8.30;99.90;;;;;;2121879;28;20092;-80
2020/12/02 04:34:18;;;;;;;47.17;24.30;;;8.30;99.90;;;;;;2121635;28;20030;-79
2020/12/02 04:35:19;;;;;;;35.03;21.85;;;8.20;99.90;;;;;;2122187;27;20065;-79
2020/12/02 04:36:20;;;;;;;47.85;23.92;;;8.20;99.90;;;;;;2123122;27;20023;-78
2020/12/02 04:37:20;;;;;;;38.33;23.45;;;8.20;99.90;;;;;;2122876;27;20069;-77
2020/12/02 04:38:21;;;;;;;42.70;25.63;;;8.20;99.90;;;;;;2123312;27;20046;-77
2020/12/02 04:39:21;;;;;;;38.88;23.60;;;8.20;99.90;;;;;;2123263;27;20147;-78
2020/12/02 04:40:28;;;;;;;41.05;26.38;;;8.20;99.90;;;;;;2123218;27;20027;-78
2020/12/02 04:41:31;;;;;;;50.42;23.83;;;8.20;99.90;;;;;;2123026;27;20023;-82
2020/12/02 04:42:33;;;;;;;41.10;23.27;;;8.20;99.90;;;;;;2123113;27;20022;-80
2020/12/02 04:43:39;;;;;;;40.28;23.42;;;8.20;99.90;;;;;;2122973;27;20030;-77
2020/12/02 04:44:40;;;;;;;46.70;23.90;;;8.20;99.90;;;;;;2123109;27;20016;-78
2020/12/02 04:45:40;;;;;;;40.05;22.52;;;8.20;99.90;;;;;;2113949;28;20114;-78
2020/12/02 04:46:41;;;;;;;40.35;23.58;;;8.20;99.90;;;;;;2114414;28;20196;-77
2020/12/02 04:47:43;;;;;;;44.13;23.77;;;8.20;99.90;;;;;;2104641;28;20024;-79
2020/12/02 04:48:48;;;;;;;38.97;23.58;;;8.20;99.90;;;;;;2105772;27;20030;-78
2020/12/02 04:49:48;;;;;;;49.08;25.88;;;8.20;99.90;;;;;;2123227;27;20019;-78
2020/12/02 04:50:49;;;;;;;40.83;23.27;;;8.20;99.90;;;;;;2123158;27;20107;-80
2020/12/02 04:51:55;;;;;;;40.95;24.23;;;8.20;99.90;;;;;;2122874;27;20031;-77
2020/12/02 04:53:14;;;;;;;38.20;22.30;;;8.30;99.90;;;;;;2123160;27;20047;-78
2020/12/02 04:54:15;;;;;;;42.75;22.45;;;8.30;99.90;;;;;;2122992;27;20046;-78
2020/12/02 04:55:15;;;;;;;37.40;24.50;;;8.20;99.90;;;;;;2122808;27;20027;-76
2020/12/02 04:56:17;;;;;;;40.20;24.35;;;8.20;99.90;;;;;;2123296;27;20019;-78
2020/12/02 04:57:18;;;;;;;35.83;22.60;;;8.20;99.90;;;;;;2122924;27;20030;-78
2020/12/02 04:58:34;;;;;;;37.80;21.40;;;8.30;99.90;;;;;;2123330;27;20261;-78
2020/12/02 04:59:38;;;;;;;35.72;22.65;;;8.30;99.90;;;;;;2105124;28;20024;-77
2020/12/02 05:00:38;;;;;;;31.08;21.35;;;8.30;99.90;;;;;;2106468;27;20035;-76
2020/12/02 05:01:50;;;;;;;30.50;20.20;;;8.30;99.90;;;;;;2122568;27;20023;-79
2020/12/02 05:02:51;;;;;;;29.08;20.42;;;8.30;99.90;;;;;;2123016;27;20015;-79
2020/12/02 05:04:04;;;;;;;31.98;20.08;;;8.30;99.90;;;;;;2113801;28;20117;-80
2020/12/02 05:05:05;;;;;;;35.47;20.08;;;8.30;99.90;;;;;;2115961;27;20016;-79
2020/12/02 05:06:05;;;;;;;29.63;19.48;;;8.30;99.90;;;;;;2122724;27;20026;-78
2020/12/02 05:07:17;;;;;;;31.15;21.17;;;8.30;99.90;;;;;;2113910;28;20019;-81
2020/12/02 05:08:29;;;;;;;31.88;19.65;;;8.30;99.90;;;;;;2107003;28;20028;-77
2020/12/02 05:09:32;;;;;;;28.42;19.02;;;8.30;99.90;;;;;;2113863;28;20127;-80
2020/12/02 05:10:35;;;;;;;26.52;18.35;;;8.30;99.90;;;;;;2114296;27;20051;-80
2020/12/02 05:11:40;;;;;;;27.92;18.85;;;8.30;99.90;;;;;;2122665;27;20015;-80
2020/12/02 05:12:43;;;;;;;25.70;18.13;;;8.30;99.90;;;;;;2122504;27;20039;-80
2020/12/02 05:13:59;;;;;;;22.95;15.30;;;8.30;99.90;;;;;;2123156;27;20019;-78
2020/12/02 05:15:07;;;;;;;26.10;16.95;;;8.30;99.90;;;;;;2123062;27;20027;-80
2020/12/02 05:16:11;;;;;;;22.33;16.55;;;8.30;99.90;;;;;;2113759;28;20042;-79
2020/12/02 05:17:28;;;;;;;24.05;16.17;;;8.30;99.90;;;;;;2105590;28;20635;-80
2020/12/02 05:18:29;;;;;;;22.83;16.35;;;8.30;99.90;;;;;;2115958;27;20023;-79
2020/12/02 05:19:30;;;;;;;24.10;16.83;;;8.30;99.90;;;;;;2122934;27;20072;-78
2020/12/02 05:20:31;;;;;;;23.27;16.23;;;8.30;99.90;;;;;;2105194;28;20054;-79
2020/12/02 05:21:40;;;;;;;24.13;15.38;;;8.30;99.90;;;;;;2105187;28;20468;-79
2020/12/02 05:22:45;;;;;;;25.25;16.13;;;8.30;99.90;;;;;;2122872;27;20046;-81
2020/12/02 05:24:03;;;;;;;24.00;15.98;;;8.30;99.90;;;;;;2122981;27;20031;-81
2020/12/02 05:25:06;;;;;;;22.13;15.35;;;8.30;99.90;;;;;;2122788;27;20050;-80
2020/12/02 05:26:17;;;;;;;20.55;15.40;;;8.30;99.90;;;;;;2122887;27;20356;-80
2020/12/02 05:27:22;;;;;;;22.30;15.23;;;8.20;99.90;;;;;;2122938;27;20066;-80
2020/12/02 05:28:33;;;;;;;22.58;15.68;;;8.20;99.90;;;;;;2113505;28;20031;-77